createdAt,value
2022-10-05T00:04:05.566Z,69
2022-10-05T00:14:05.450Z,70
2022-10-05T00:24:05.388Z,60
2022-10-05T00:34:05.298Z,99
2022-10-05T00:44:05.235Z,99
2022-10-05T00:54:05.159Z,99
2022-10-05T01:04:05.087Z,99
2022-10-05T01:14:05.033Z,99
2022-10-05T01:24:04.947Z,99
2022-10-05T01:34:09.134Z,99
2022-10-05T01:44:04.807Z,99
2022-10-05T01:54:04.728Z,99
2022-10-05T02:04:04.650Z,99
2022-10-05T02:14:04.606Z,99
2022-10-05T02:24:04.631Z,99
2022-10-05T02:34:04.436Z,99
2022-10-05T02:44:04.386Z,99
2022-10-05T02:54:04.316Z,99
2022-10-05T03:04:04.237Z,99
2022-10-05T03:14:04.179Z,99
2022-10-05T03:24:04.108Z,99
2022-10-05T03:34:04.030Z,99
2022-10-05T03:44:03.977Z,99
2022-10-05T03:54:03.901Z,99
2022-10-05T04:04:03.818Z,99
2022-10-05T04:14:03.871Z,99
2022-10-05T04:24:03.688Z,99
2022-10-05T04:34:03.725Z,99
2022-10-05T04:44:03.562Z,99
2022-10-05T04:54:03.480Z,99
2022-10-05T05:04:03.479Z,99
2022-10-05T05:14:03.324Z,99
2022-10-05T05:24:03.258Z,99
2022-10-05T05:34:03.204Z,99
2022-10-05T05:44:03.149Z,99
2022-10-05T05:54:03.169Z,99
2022-10-05T06:04:03.008Z,99
2022-10-05T06:14:02.907Z,99
2022-10-05T06:24:02.852Z,99
2022-10-05T06:34:02.785Z,99
2022-10-05T06:44:02.805Z,99
2022-10-05T06:54:02.643Z,99
2022-10-05T07:04:02.576Z,99
2022-10-05T07:14:02.510Z,99
2022-10-05T07:24:02.427Z,99
2022-10-05T07:34:02.364Z,99
2022-10-05T07:44:03.333Z,99
2022-10-05T07:54:02.218Z,99
2022-10-05T08:04:02.167Z,99
2022-10-05T08:14:02.104Z,1
2022-10-05T08:24:02.032Z,1
2022-10-05T08:34:01.957Z,1
2022-10-05T08:44:01.888Z,1
2022-10-05T08:54:01.829Z,1
2022-10-05T09:04:01.773Z,1
2022-10-05T09:14:01.689Z,1
2022-10-05T09:24:01.614Z,1
2022-10-05T09:34:01.557Z,1
2022-10-05T09:44:01.513Z,1
2022-10-05T09:54:01.416Z,1
2022-10-05T10:04:01.421Z,1
2022-10-05T10:14:01.577Z,1
2022-10-05T10:24:01.321Z,1
2022-10-05T10:34:01.234Z,1
2022-10-05T10:44:01.101Z,99
2022-10-05T10:54:01.038Z,99
2022-10-05T11:04:01.106Z,99
2022-10-05T11:14:00.914Z,1
2022-10-05T11:24:00.815Z,1
2022-10-05T11:34:00.728Z,1
2022-10-05T11:44:06.048Z,1
2022-10-05T11:54:00.625Z,1
2022-10-05T12:04:00.669Z,1
2022-10-05T12:14:00.462Z,1
2022-10-05T12:24:00.434Z,1
2022-10-05T12:34:00.327Z,1
2022-10-05T12:44:00.353Z,1
2022-10-05T12:54:00.195Z,1
2022-10-05T13:04:00.137Z,1
2022-10-05T13:14:00.089Z,1
2022-10-05T13:24:00.004Z,1
2022-10-05T13:34:00.070Z,99
2022-10-05T13:43:59.875Z,1
2022-10-05T13:53:59.805Z,1
2022-10-05T14:03:59.738Z,1
2022-10-05T14:13:59.660Z,1
2022-10-05T14:23:59.619Z,99
2022-10-05T14:33:59.526Z,99
2022-10-05T14:43:59.445Z,99
2022-10-05T14:53:59.398Z,99
2022-10-05T15:03:59.344Z,99
2022-10-05T15:13:59.392Z,99
2022-10-05T15:23:59.197Z,99
2022-10-05T15:33:59.146Z,99
2022-10-05T15:43:59.072Z,99
2022-10-05T15:54:02.383Z,99
2022-10-05T16:03:58.936Z,99
2022-10-05T16:23:58.817Z,99
2022-10-05T16:33:58.773Z,99
2022-10-05T16:43:58.707Z,99
2022-10-05T16:53:58.627Z,99
2022-10-05T17:03:58.538Z,99
2022-10-05T17:13:58.485Z,99
2022-10-05T17:23:58.579Z,99
2022-10-05T17:33:58.363Z,87
2022-10-05T17:43:58.294Z,76
2022-10-05T17:53:58.233Z,96
2022-10-05T18:03:58.188Z,51
2022-10-05T18:13:58.102Z,75
2022-10-05T18:23:58.017Z,48
2022-10-05T18:33:57.975Z,69
2022-10-05T18:43:57.900Z,47
2022-10-05T18:53:57.829Z,57
2022-10-05T19:03:57.763Z,58
2022-10-05T19:13:57.796Z,41
2022-10-05T19:23:57.636Z,49
2022-10-05T19:33:57.588Z,41
2022-10-05T19:43:57.519Z,52
2022-10-05T19:53:57.439Z,62
2022-10-05T20:03:57.389Z,69
2022-10-05T20:13:57.302Z,50
2022-10-05T20:23:57.246Z,41
2022-10-05T20:33:57.170Z,31
2022-10-05T20:43:57.111Z,28
2022-10-05T20:53:57.183Z,33
2022-10-05T21:03:56.991Z,23
2022-10-05T21:13:56.900Z,18
2022-10-05T21:23:56.849Z,21
2022-10-05T21:33:56.772Z,1
2022-10-05T21:43:56.690Z,9
2022-10-05T21:53:56.651Z,1
2022-10-05T22:03:56.570Z,1
2022-10-05T22:13:56.622Z,1
2022-10-05T22:23:56.430Z,1
2022-10-05T22:33:56.448Z,1
2022-10-05T22:43:56.284Z,1
2022-10-05T22:53:56.198Z,1
2022-10-05T23:03:56.155Z,1
2022-10-05T23:13:56.195Z,1
2022-10-05T23:23:55.992Z,1
2022-10-05T23:33:55.917Z,1
2022-10-05T23:43:55.850Z,1
2022-10-05T23:53:55.797Z,1
